AXM236 VGHS-VYYY
Flight info
| Callsign | AXM236 |
|---|---|
| Flight time | 1h 19m |
| Altitude | 33000 |
| Route | ADMIL2 ADMIL G463 DORLI OKIKO1B |
| Aircraft | A320/M-SDE3FGHIRWY/LB1 |
Departure
| Time | 2026-05-04 18:12 |
|---|---|
| Airport | Hazrat Shahjalal International Airport (VGHS) |
Arrival
| Time | 2026-05-04 19:31 |
|---|---|
| Airport | Yangon International Airport (VYYY) |
| Time | Latitude | Longitude | Altitude | Speed | Heading |
|---|---|---|---|---|---|
| 2026-05-04 18:12 | 23.89329 | 90.41144 | 2590 ft | 249 kts | 114° |
| 2026-05-04 18:12 | 23.88182 | 90.42588 | 3330 ft | 260 kts | 151° |
| 2026-05-04 18:13 | 23.86419 | 90.43071 | 4171 ft | 267 kts | 181° |
| 2026-05-04 18:13 | 23.84557 | 90.42883 | 5121 ft | 270 kts | 191° |
| 2026-05-04 18:13 | 23.80814 | 90.42866 | 6595 ft | 285 kts | 155° |
| 2026-05-04 18:14 | 23.79134 | 90.44056 | 7290 ft | 291 kts | 144° |
| 2026-05-04 18:14 | 23.77537 | 90.45441 | 7993 ft | 295 kts | 141° |
| 2026-05-04 18:14 | 23.75959 | 90.46910 | 8657 ft | 301 kts | 140° |
| 2026-05-04 18:15 | 23.72745 | 90.49944 | 10195 ft | 310 kts | 140° |
| 2026-05-04 18:15 | 23.69235 | 90.53180 | 10750 ft | 351 kts | 141° |
| 2026-05-04 18:15 | 23.67333 | 90.54905 | 11254 ft | 358 kts | 141° |
| 2026-05-04 18:16 | 23.65407 | 90.56641 | 11865 ft | 361 kts | 141° |
| 2026-05-04 18:16 | 23.63453 | 90.58394 | 12481 ft | 364 kts | 142° |
| 2026-05-04 18:16 | 23.61482 | 90.60157 | 13094 ft | 367 kts | 142° |
| 2026-05-04 18:17 | 23.57520 | 90.63701 | 14291 ft | 373 kts | 142° |
| 2026-05-04 18:17 | 23.55508 | 90.65504 | 14820 ft | 376 kts | 142° |
| 2026-05-04 18:17 | 23.51423 | 90.69170 | 15881 ft | 382 kts | 142° |
| 2026-05-04 18:18 | 23.49366 | 90.71021 | 16406 ft | 385 kts | 143° |
| 2026-05-04 18:18 | 23.47320 | 90.72864 | 16899 ft | 388 kts | 143° |
| 2026-05-04 18:18 | 23.45224 | 90.74749 | 17406 ft | 391 kts | 143° |
| 2026-05-04 18:18 | 23.43116 | 90.76644 | 17907 ft | 393 kts | 143° |
| 2026-05-04 18:19 | 23.38874 | 90.80439 | 18741 ft | 400 kts | 143° |
| 2026-05-04 18:19 | 23.36714 | 90.82365 | 19155 ft | 403 kts | 143° |
| 2026-05-04 18:19 | 23.34541 | 90.84308 | 19562 ft | 406 kts | 143° |
| 2026-05-04 18:20 | 23.32345 | 90.86275 | 19964 ft | 408 kts | 143° |
| 2026-05-04 18:20 | 23.30148 | 90.88244 | 20375 ft | 411 kts | 143° |
| 2026-05-04 18:20 | 23.27934 | 90.90230 | 20764 ft | 413 kts | 143° |
| 2026-05-04 18:20 | 23.25708 | 90.92227 | 21153 ft | 416 kts | 143° |
| 2026-05-04 18:21 | 23.23462 | 90.94240 | 21548 ft | 418 kts | 143° |
| 2026-05-04 18:21 | 23.21207 | 90.96255 | 21928 ft | 421 kts | 144° |
| 2026-05-04 18:21 | 23.18968 | 90.98255 | 22297 ft | 423 kts | 144° |
| 2026-05-04 18:21 | 23.16685 | 91.00300 | 22657 ft | 426 kts | 143° |
| 2026-05-04 18:22 | 23.14399 | 91.02378 | 23022 ft | 429 kts | 143° |
| 2026-05-04 18:22 | 23.12109 | 91.04478 | 23384 ft | 431 kts | 143° |
| 2026-05-04 18:22 | 23.09815 | 91.06588 | 23662 ft | 433 kts | 143° |
| 2026-05-04 18:22 | 23.07508 | 91.08712 | 23966 ft | 436 kts | 143° |
| 2026-05-04 18:23 | 23.05189 | 91.10844 | 24258 ft | 438 kts | 143° |
| 2026-05-04 18:23 | 23.02853 | 91.12982 | 24543 ft | 440 kts | 143° |
| 2026-05-04 18:23 | 23.00497 | 91.15128 | 24816 ft | 442 kts | 143° |
| 2026-05-04 18:23 | 22.98165 | 91.17247 | 25100 ft | 444 kts | 143° |
| 2026-05-04 18:24 | 22.95784 | 91.19407 | 25382 ft | 446 kts | 143° |
| 2026-05-04 18:24 | 22.93395 | 91.21577 | 25657 ft | 448 kts | 143° |
| 2026-05-04 18:24 | 22.90997 | 91.23760 | 25923 ft | 450 kts | 143° |
| 2026-05-04 18:24 | 22.88590 | 91.25955 | 26198 ft | 452 kts | 143° |
| 2026-05-04 18:25 | 22.86176 | 91.28156 | 26456 ft | 454 kts | 143° |
| 2026-05-04 18:25 | 22.83781 | 91.30338 | 26718 ft | 456 kts | 143° |
| 2026-05-04 18:25 | 22.81337 | 91.32564 | 26969 ft | 458 kts | 144° |
| 2026-05-04 18:25 | 22.78879 | 91.34796 | 27224 ft | 460 kts | 144° |
| 2026-05-04 18:26 | 22.76416 | 91.37029 | 27462 ft | 463 kts | 144° |
| 2026-05-04 18:26 | 22.73939 | 91.39274 | 27712 ft | 465 kts | 144° |
| 2026-05-04 18:26 | 22.71447 | 91.41529 | 27945 ft | 467 kts | 144° |
| 2026-05-04 18:26 | 22.68977 | 91.43764 | 28189 ft | 469 kts | 144° |
| 2026-05-04 18:27 | 22.66464 | 91.46041 | 28437 ft | 471 kts | 144° |
| 2026-05-04 18:27 | 22.63938 | 91.48332 | 28674 ft | 473 kts | 144° |
| 2026-05-04 18:27 | 22.61449 | 91.50596 | 29337 ft | 454 kts | 144° |
| 2026-05-04 18:27 | 22.59098 | 91.52744 | 29729 ft | 435 kts | 144° |
| 2026-05-04 18:28 | 22.54441 | 91.56956 | 29942 ft | 443 kts | 144° |
| 2026-05-04 18:28 | 22.52049 | 91.59102 | 30063 ft | 449 kts | 144° |
| 2026-05-04 18:28 | 22.49633 | 91.61269 | 30182 ft | 454 kts | 144° |
| 2026-05-04 18:29 | 22.47183 | 91.63473 | 30304 ft | 459 kts | 144° |
| 2026-05-04 18:29 | 22.44719 | 91.65694 | 30398 ft | 463 kts | 144° |
| 2026-05-04 18:29 | 22.42228 | 91.67940 | 30519 ft | 468 kts | 144° |
| 2026-05-04 18:29 | 22.39715 | 91.70205 | 30638 ft | 472 kts | 144° |
| 2026-05-04 18:30 | 22.34663 | 91.74751 | 30876 ft | 479 kts | 144° |
| 2026-05-04 18:30 | 22.32090 | 91.77065 | 30993 ft | 483 kts | 144° |
| 2026-05-04 18:30 | 22.29497 | 91.79397 | 31146 ft | 485 kts | 144° |
| 2026-05-04 18:31 | 22.26901 | 91.81732 | 31365 ft | 485 kts | 144° |
| 2026-05-04 18:31 | 22.24301 | 91.84068 | 31606 ft | 485 kts | 144° |
| 2026-05-04 18:31 | 22.21699 | 91.86403 | 31868 ft | 485 kts | 144° |
| 2026-05-04 18:31 | 22.19108 | 91.88725 | 32110 ft | 484 kts | 144° |
| 2026-05-04 18:32 | 22.16541 | 91.91017 | 32359 ft | 484 kts | 144° |
| 2026-05-04 18:32 | 22.13935 | 91.93340 | 32632 ft | 483 kts | 144° |
| 2026-05-04 18:32 | 22.11340 | 91.95652 | 32846 ft | 483 kts | 144° |
| 2026-05-04 18:33 | 22.06230 | 92.00212 | 32902 ft | 472 kts | 144° |
| 2026-05-04 18:33 | 22.01203 | 92.04691 | 32900 ft | 470 kts | 144° |
| 2026-05-04 18:34 | 21.96147 | 92.09192 | 32902 ft | 470 kts | 144° |
| 2026-05-04 18:34 | 21.91085 | 92.13678 | 32904 ft | 470 kts | 144° |
| 2026-05-04 18:35 | 21.86023 | 92.18059 | 32904 ft | 469 kts | 145° |
| 2026-05-04 18:35 | 21.80912 | 92.22450 | 32900 ft | 469 kts | 145° |
| 2026-05-04 18:36 | 21.75809 | 92.26849 | 32875 ft | 470 kts | 145° |
| 2026-05-04 18:36 | 21.70741 | 92.31231 | 32890 ft | 470 kts | 145° |
| 2026-05-04 18:37 | 21.65641 | 92.35679 | 32898 ft | 472 kts | 143° |
| 2026-05-04 18:37 | 21.60755 | 92.40442 | 32891 ft | 474 kts | 140° |
| 2026-05-04 18:38 | 21.56033 | 92.45334 | 32903 ft | 474 kts | 139° |
| 2026-05-04 18:38 | 21.51237 | 92.50231 | 32901 ft | 473 kts | 140° |
| 2026-05-04 18:39 | 21.46423 | 92.55026 | 32914 ft | 474 kts | 141° |
| 2026-05-04 18:39 | 21.41564 | 92.59832 | 32923 ft | 473 kts | 140° |
| 2026-05-04 18:40 | 21.36758 | 92.64605 | 32918 ft | 473 kts | 140° |
| 2026-05-04 18:40 | 21.31909 | 92.69432 | 32920 ft | 474 kts | 140° |
| 2026-05-04 18:41 | 21.27086 | 92.74226 | 32923 ft | 474 kts | 140° |
| 2026-05-04 18:41 | 21.22242 | 92.79034 | 32922 ft | 474 kts | 140° |
| 2026-05-04 18:42 | 21.17408 | 92.83823 | 32917 ft | 473 kts | 140° |
| 2026-05-04 18:42 | 21.12602 | 92.88578 | 32911 ft | 473 kts | 140° |
| 2026-05-04 18:43 | 21.07770 | 92.93362 | 32904 ft | 472 kts | 140° |
| 2026-05-04 18:43 | 21.02943 | 92.98140 | 32903 ft | 472 kts | 140° |
| 2026-05-04 18:44 | 20.98143 | 93.02882 | 32904 ft | 472 kts | 140° |
| 2026-05-04 18:44 | 20.93312 | 93.07647 | 32908 ft | 472 kts | 140° |
| 2026-05-04 18:45 | 20.88474 | 93.12418 | 32905 ft | 472 kts | 140° |
| 2026-05-04 18:45 | 20.83625 | 93.17191 | 32902 ft | 473 kts | 140° |
| 2026-05-04 18:46 | 20.78812 | 93.21927 | 32917 ft | 473 kts | 140° |
| 2026-05-04 18:46 | 20.73965 | 93.26697 | 32908 ft | 473 kts | 140° |
| 2026-05-04 18:47 | 20.69945 | 93.30651 | 32903 ft | 472 kts | 140° |
| 2026-05-04 18:47 | 20.65096 | 93.35406 | 32909 ft | 473 kts | 140° |
| 2026-05-04 18:48 | 20.60278 | 93.40138 | 32931 ft | 472 kts | 140° |
| 2026-05-04 18:48 | 20.55432 | 93.44891 | 32920 ft | 472 kts | 140° |
| 2026-05-04 18:49 | 20.50581 | 93.49630 | 32916 ft | 472 kts | 140° |
| 2026-05-04 18:49 | 20.45759 | 93.54346 | 32937 ft | 472 kts | 140° |
| 2026-05-04 18:50 | 20.40902 | 93.59094 | 32916 ft | 472 kts | 140° |
| 2026-05-04 18:50 | 20.36082 | 93.63794 | 32915 ft | 472 kts | 140° |
| 2026-05-04 18:51 | 20.31287 | 93.68476 | 32920 ft | 472 kts | 140° |
| 2026-05-04 18:51 | 20.26438 | 93.73211 | 32906 ft | 472 kts | 140° |
| 2026-05-04 18:52 | 20.21613 | 93.77913 | 32912 ft | 472 kts | 140° |
| 2026-05-04 18:52 | 20.16756 | 93.82644 | 32921 ft | 472 kts | 140° |
| 2026-05-04 18:53 | 20.11893 | 93.87365 | 32908 ft | 472 kts | 140° |
| 2026-05-04 18:53 | 20.07065 | 93.92042 | 32903 ft | 472 kts | 140° |
| 2026-05-04 18:54 | 20.02206 | 93.96762 | 32913 ft | 472 kts | 140° |
| 2026-05-04 18:54 | 19.97347 | 94.01471 | 32915 ft | 472 kts | 140° |
| 2026-05-04 18:55 | 19.92517 | 94.06150 | 32917 ft | 471 kts | 140° |
| 2026-05-04 18:55 | 19.85239 | 94.13195 | 32921 ft | 471 kts | 140° |
| 2026-05-04 18:56 | 19.80411 | 94.17860 | 32920 ft | 471 kts | 140° |
| 2026-05-04 18:56 | 19.75559 | 94.22544 | 32916 ft | 471 kts | 140° |
| 2026-05-04 18:57 | 19.70713 | 94.27219 | 32909 ft | 470 kts | 140° |
| 2026-05-04 18:57 | 19.65890 | 94.31874 | 32910 ft | 470 kts | 140° |
| 2026-05-04 18:58 | 19.61040 | 94.36547 | 32911 ft | 470 kts | 140° |
| 2026-05-04 18:58 | 19.56191 | 94.41211 | 32910 ft | 470 kts | 140° |
| 2026-05-04 18:59 | 19.51358 | 94.45863 | 32905 ft | 470 kts | 140° |
| 2026-05-04 18:59 | 19.46498 | 94.50536 | 32923 ft | 471 kts | 140° |
| 2026-05-04 19:00 | 19.41676 | 94.55165 | 32928 ft | 471 kts | 140° |
| 2026-05-04 19:00 | 19.36821 | 94.59819 | 32921 ft | 470 kts | 140° |
| 2026-05-04 19:01 | 19.31965 | 94.64468 | 32920 ft | 469 kts | 140° |
| 2026-05-04 19:01 | 19.27119 | 94.69103 | 32917 ft | 469 kts | 140° |
| 2026-05-04 19:02 | 19.22015 | 94.73285 | 32897 ft | 466 kts | 146° |
| 2026-05-04 19:02 | 19.16754 | 94.77314 | 32899 ft | 466 kts | 146° |
| 2026-05-04 19:03 | 19.11481 | 94.81343 | 32898 ft | 466 kts | 146° |
| 2026-05-04 19:03 | 19.06241 | 94.85340 | 32898 ft | 466 kts | 146° |
| 2026-05-04 19:04 | 19.00969 | 94.89355 | 32886 ft | 466 kts | 146° |
| 2026-05-04 19:04 | 18.95708 | 94.93355 | 32891 ft | 466 kts | 146° |
| 2026-05-04 19:05 | 18.90449 | 94.97357 | 32893 ft | 465 kts | 146° |
| 2026-05-04 19:05 | 18.85197 | 95.01369 | 32901 ft | 465 kts | 146° |
| 2026-05-04 19:06 | 18.79982 | 95.05343 | 32887 ft | 464 kts | 146° |
| 2026-05-04 19:06 | 18.74729 | 95.09328 | 32888 ft | 464 kts | 146° |
| 2026-05-04 19:07 | 18.69490 | 95.13305 | 32884 ft | 464 kts | 146° |
| 2026-05-04 19:07 | 18.64282 | 95.17262 | 32881 ft | 463 kts | 146° |
| 2026-05-04 19:08 | 18.59067 | 95.21212 | 32618 ft | 457 kts | 146° |
| 2026-05-04 19:08 | 18.56496 | 95.23157 | 32374 ft | 452 kts | 146° |
| 2026-05-04 19:08 | 18.53939 | 95.25091 | 32130 ft | 450 kts | 146° |
| 2026-05-04 19:09 | 18.51396 | 95.27014 | 31887 ft | 448 kts | 146° |
| 2026-05-04 19:09 | 18.48899 | 95.28904 | 31654 ft | 446 kts | 146° |
| 2026-05-04 19:09 | 18.46379 | 95.30813 | 31420 ft | 445 kts | 146° |
| 2026-05-04 19:09 | 18.43866 | 95.32717 | 31182 ft | 443 kts | 146° |
| 2026-05-04 19:10 | 18.41373 | 95.34604 | 30866 ft | 440 kts | 147° |
| 2026-05-04 19:10 | 18.38890 | 95.36482 | 30342 ft | 438 kts | 147° |
| 2026-05-04 19:10 | 18.36415 | 95.38353 | 29809 ft | 437 kts | 147° |
| 2026-05-04 19:10 | 18.33945 | 95.40219 | 29242 ft | 435 kts | 146° |
| 2026-05-04 19:11 | 18.31497 | 95.42066 | 28742 ft | 431 kts | 147° |
| 2026-05-04 19:11 | 18.29095 | 95.43877 | 28248 ft | 428 kts | 147° |
| 2026-05-04 19:11 | 18.26682 | 95.45693 | 27768 ft | 424 kts | 147° |
| 2026-05-04 19:11 | 18.24291 | 95.47494 | 27298 ft | 421 kts | 147° |
| 2026-05-04 19:12 | 18.21921 | 95.49280 | 26830 ft | 417 kts | 147° |
| 2026-05-04 19:12 | 18.17296 | 95.52768 | 25914 ft | 401 kts | 147° |
| 2026-05-04 19:12 | 18.15044 | 95.54467 | 25468 ft | 397 kts | 147° |
| 2026-05-04 19:13 | 18.12802 | 95.56157 | 25014 ft | 395 kts | 147° |
| 2026-05-04 19:13 | 18.10566 | 95.57838 | 24544 ft | 395 kts | 147° |
| 2026-05-04 19:13 | 18.08335 | 95.59513 | 24072 ft | 394 kts | 147° |
| 2026-05-04 19:13 | 18.06127 | 95.61170 | 23588 ft | 394 kts | 147° |
| 2026-05-04 19:14 | 18.03899 | 95.62842 | 23055 ft | 394 kts | 147° |
| 2026-05-04 19:14 | 18.01669 | 95.64517 | 22556 ft | 392 kts | 147° |
| 2026-05-04 19:14 | 17.99455 | 95.66182 | 22067 ft | 390 kts | 146° |
| 2026-05-04 19:14 | 17.97253 | 95.67841 | 21585 ft | 388 kts | 146° |
| 2026-05-04 19:15 | 17.95056 | 95.69492 | 21105 ft | 387 kts | 146° |
| 2026-05-04 19:15 | 17.92869 | 95.71135 | 20626 ft | 386 kts | 146° |
| 2026-05-04 19:15 | 17.90684 | 95.72774 | 20161 ft | 385 kts | 146° |
| 2026-05-04 19:15 | 17.88561 | 95.74370 | 20027 ft | 374 kts | 146° |
| 2026-05-04 19:16 | 17.86474 | 95.75941 | 19911 ft | 362 kts | 146° |
| 2026-05-04 19:16 | 17.84439 | 95.77451 | 19791 ft | 351 kts | 148° |
| 2026-05-04 19:16 | 17.82436 | 95.78798 | 19668 ft | 339 kts | 150° |
| 2026-05-04 19:16 | 17.80427 | 95.80049 | 19223 ft | 331 kts | 152° |
| 2026-05-04 19:17 | 17.78439 | 95.81240 | 18734 ft | 327 kts | 152° |
| 2026-05-04 19:17 | 17.76462 | 95.82414 | 18230 ft | 324 kts | 152° |
| 2026-05-04 19:17 | 17.74509 | 95.83584 | 17666 ft | 321 kts | 152° |
| 2026-05-04 19:17 | 17.72609 | 95.84741 | 17143 ft | 317 kts | 152° |
| 2026-05-04 19:18 | 17.70713 | 95.85908 | 16688 ft | 312 kts | 152° |
| 2026-05-04 19:18 | 17.68851 | 95.87062 | 16283 ft | 309 kts | 152° |
| 2026-05-04 19:18 | 17.67003 | 95.88209 | 15883 ft | 307 kts | 152° |
| 2026-05-04 19:18 | 17.65164 | 95.89350 | 15487 ft | 307 kts | 152° |
| 2026-05-04 19:19 | 17.63338 | 95.90480 | 15137 ft | 308 kts | 152° |
| 2026-05-04 19:19 | 17.61499 | 95.91617 | 14818 ft | 308 kts | 152° |
| 2026-05-04 19:19 | 17.59650 | 95.92757 | 14581 ft | 305 kts | 152° |
| 2026-05-04 19:19 | 17.57823 | 95.93884 | 14322 ft | 303 kts | 152° |
| 2026-05-04 19:20 | 17.56012 | 95.95002 | 13909 ft | 300 kts | 152° |
| 2026-05-04 19:20 | 17.54222 | 95.96110 | 13419 ft | 298 kts | 152° |
| 2026-05-04 19:20 | 17.52457 | 95.97203 | 13018 ft | 291 kts | 152° |
| 2026-05-04 19:20 | 17.50746 | 95.98262 | 12554 ft | 287 kts | 152° |
| 2026-05-04 19:21 | 17.49039 | 95.99319 | 12081 ft | 283 kts | 151° |
| 2026-05-04 19:21 | 17.47348 | 96.00363 | 11614 ft | 280 kts | 151° |
| 2026-05-04 19:21 | 17.45677 | 96.01392 | 11145 ft | 277 kts | 151° |
| 2026-05-04 19:21 | 17.44025 | 96.02412 | 10685 ft | 273 kts | 151° |
| 2026-05-04 19:22 | 17.42396 | 96.03418 | 10262 ft | 270 kts | 151° |
| 2026-05-04 19:22 | 17.40779 | 96.04416 | 9920 ft | 269 kts | 151° |
| 2026-05-04 19:22 | 17.39190 | 96.05395 | 9564 ft | 267 kts | 151° |
| 2026-05-04 19:22 | 17.37594 | 96.06376 | 9179 ft | 265 kts | 150° |
| 2026-05-04 19:23 | 17.36002 | 96.07356 | 8814 ft | 264 kts | 150° |
| 2026-05-04 19:23 | 17.34439 | 96.08317 | 8449 ft | 263 kts | 150° |
| 2026-05-04 19:23 | 17.32863 | 96.09287 | 8082 ft | 262 kts | 150° |
| 2026-05-04 19:23 | 17.31295 | 96.10256 | 7722 ft | 261 kts | 150° |
| 2026-05-04 19:24 | 17.29732 | 96.11222 | 7362 ft | 260 kts | 150° |
| 2026-05-04 19:24 | 17.28177 | 96.12181 | 7012 ft | 260 kts | 150° |
| 2026-05-04 19:24 | 17.26638 | 96.13130 | 6682 ft | 258 kts | 150° |
| 2026-05-04 19:24 | 17.25098 | 96.14076 | 6438 ft | 255 kts | 150° |
| 2026-05-04 19:25 | 17.23571 | 96.15013 | 6179 ft | 254 kts | 150° |
| 2026-05-04 19:25 | 17.22047 | 96.15948 | 5918 ft | 254 kts | 150° |
| 2026-05-04 19:25 | 17.20529 | 96.16880 | 5648 ft | 252 kts | 150° |
| 2026-05-04 19:25 | 17.19020 | 96.17807 | 5383 ft | 251 kts | 150° |
| 2026-05-04 19:26 | 17.17520 | 96.18714 | 5121 ft | 246 kts | 154° |
| 2026-05-04 19:26 | 17.15933 | 96.19279 | 4860 ft | 242 kts | 170° |
| 2026-05-04 19:26 | 17.14273 | 96.19466 | 4601 ft | 239 kts | 175° |
| 2026-05-04 19:26 | 17.12618 | 96.19630 | 4334 ft | 238 kts | 175° |
| 2026-05-04 19:27 | 17.10966 | 96.19795 | 4070 ft | 237 kts | 175° |
| 2026-05-04 19:27 | 17.09326 | 96.19959 | 3808 ft | 236 kts | 176° |
| 2026-05-04 19:27 | 17.07687 | 96.20124 | 3545 ft | 235 kts | 176° |
| 2026-05-04 19:27 | 17.06060 | 96.20286 | 3287 ft | 235 kts | 176° |
| 2026-05-04 19:28 | 17.04457 | 96.20445 | 3066 ft | 233 kts | 176° |
| 2026-05-04 19:28 | 17.02840 | 96.20601 | 2977 ft | 232 kts | 178° |
| 2026-05-04 19:28 | 17.01265 | 96.20393 | 2621 ft | 226 kts | 203° |
| 2026-05-04 19:28 | 16.99953 | 96.19609 | 2455 ft | 206 kts | 215° |
| 2026-05-04 19:29 | 16.98808 | 96.18800 | 1873 ft | 201 kts | 212° |
| 2026-05-04 19:29 | 16.97515 | 96.18058 | 769 ft | 219 kts | 210° |
| 2026-05-04 19:29 | 16.96363 | 96.17267 | 837 ft | 175 kts | 222° |
| 2026-05-04 19:29 | 16.95501 | 96.16499 | 670 ft | 152 kts | 219° |
| 2026-05-04 19:30 | 16.94692 | 96.15918 | 556 ft | 132 kts | 212° |
| 2026-05-04 19:30 | 16.93834 | 96.15445 | 458 ft | 148 kts | 211° |
| 2026-05-04 19:30 | 16.92989 | 96.14862 | 183 ft | 142 kts | 213° |
| 2026-05-04 19:30 | 16.92185 | 96.14309 | 68 ft | 134 kts | 211° |
| 2026-05-04 19:31 | 16.91534 | 96.13883 | 66 ft | 86 kts | 217° |
| 2026-05-04 19:31 | 16.91125 | 96.13594 | 81 ft | 60 kts | 214° |
| 2026-05-04 19:31 | 16.90806 | 96.13383 | 91 ft | 50 kts | 211° |
| 2026-05-04 19:31 | 16.90520 | 96.13196 | 96 ft | 48 kts | 212° |
| 2026-05-04 19:32 | 16.90241 | 96.13089 | 102 ft | 27 kts | 163° |
| 2026-05-04 19:32 | 16.90113 | 96.13226 | 103 ft | 17 kts | 126° |
| 2026-05-04 19:32 | 16.90084 | 96.13270 | 103 ft | 0 kts | 127° |